sensor_id;sensor_type;location;lat;lon;timestamp;P1;durP1;ratioP1;P2;durP2;ratioP2
9783;SDS011;4931;44.874;-1.092;2023-12-20T00:00:35;14.77;;;2.75;;
9783;SDS011;4931;44.874;-1.092;2023-12-20T00:03:02;12.18;;;2.47;;
9783;SDS011;4931;44.874;-1.092;2023-12-20T00:05:28;9.85;;;2.10;;
9783;SDS011;4931;44.874;-1.092;2023-12-20T00:07:54;15.50;;;2.65;;
9783;SDS011;4931;44.874;-1.092;2023-12-20T00:10:19;12.20;;;2.50;;
9783;SDS011;4931;44.874;-1.092;2023-12-20T00:12:45;19.15;;;3.00;;
9783;SDS011;4931;44.874;-1.092;2023-12-20T00:15:10;23.00;;;3.03;;
9783;SDS011;4931;44.874;-1.092;2023-12-20T00:17:36;19.77;;;2.25;;
9783;SDS011;4931;44.874;-1.092;2023-12-20T00:20:01;21.10;;;2.78;;
9783;SDS011;4931;44.874;-1.092;2023-12-20T00:22:27;18.83;;;2.97;;
9783;SDS011;4931;44.874;-1.092;2023-12-20T00:24:52;25.80;;;2.35;;
9783;SDS011;4931;44.874;-1.092;2023-12-20T00:27:18;13.77;;;2.47;;
9783;SDS011;4931;44.874;-1.092;2023-12-20T00:29:43;22.35;;;2.30;;
9783;SDS011;4931;44.874;-1.092;2023-12-20T00:32:12;20.30;;;2.53;;
9783;SDS011;4931;44.874;-1.092;2023-12-20T00:34:38;28.77;;;3.65;;
9783;SDS011;4931;44.874;-1.092;2023-12-20T00:37:03;22.98;;;3.45;;
9783;SDS011;4931;44.874;-1.092;2023-12-20T00:39:29;27.88;;;2.92;;
9783;SDS011;4931;44.874;-1.092;2023-12-20T00:41:54;21.35;;;3.30;;
9783;SDS011;4931;44.874;-1.092;2023-12-20T00:44:20;20.42;;;3.22;;
9783;SDS011;4931;44.874;-1.092;2023-12-20T00:46:45;29.88;;;4.45;;
9783;SDS011;4931;44.874;-1.092;2023-12-20T00:49:11;27.08;;;4.22;;
9783;SDS011;4931;44.874;-1.092;2023-12-20T00:51:36;25.48;;;4.10;;
9783;SDS011;4931;44.874;-1.092;2023-12-20T00:54:01;20.13;;;3.53;;
9783;SDS011;4931;44.874;-1.092;2023-12-20T00:56:27;27.77;;;4.75;;
9783;SDS011;4931;44.874;-1.092;2023-12-20T00:58:52;20.60;;;4.03;;
9783;SDS011;4931;44.874;-1.092;2023-12-20T01:01:18;39.45;;;4.72;;
9783;SDS011;4931;44.874;-1.092;2023-12-20T01:03:43;28.40;;;4.18;;
9783;SDS011;4931;44.874;-1.092;2023-12-20T01:06:09;28.77;;;4.20;;
9783;SDS011;4931;44.874;-1.092;2023-12-20T01:08:34;27.60;;;4.35;;
9783;SDS011;4931;44.874;-1.092;2023-12-20T01:11:00;27.80;;;4.22;;
9783;SDS011;4931;44.874;-1.092;2023-12-20T01:13:25;25.05;;;4.30;;
9783;SDS011;4931;44.874;-1.092;2023-12-20T01:15:51;28.52;;;4.30;;
9783;SDS011;4931;44.874;-1.092;2023-12-20T01:18:16;22.85;;;4.38;;
9783;SDS011;4931;44.874;-1.092;2023-12-20T01:20:42;22.45;;;4.13;;
9783;SDS011;4931;44.874;-1.092;2023-12-20T01:23:07;26.25;;;4.18;;
9783;SDS011;4931;44.874;-1.092;2023-12-20T01:25:33;25.33;;;3.80;;
9783;SDS011;4931;44.874;-1.092;2023-12-20T01:27:58;25.08;;;4.50;;
9783;SDS011;4931;44.874;-1.092;2023-12-20T01:30:24;29.83;;;4.65;;
9783;SDS011;4931;44.874;-1.092;2023-12-20T01:32:50;25.80;;;4.30;;
9783;SDS011;4931;44.874;-1.092;2023-12-20T01:35:15;20.85;;;4.50;;
9783;SDS011;4931;44.874;-1.092;2023-12-20T01:37:40;20.40;;;3.90;;
9783;SDS011;4931;44.874;-1.092;2023-12-20T01:40:06;31.33;;;4.38;;
9783;SDS011;4931;44.874;-1.092;2023-12-20T01:42:33;21.55;;;3.47;;
9783;SDS011;4931;44.874;-1.092;2023-12-20T01:44:58;19.98;;;3.80;;
9783;SDS011;4931;44.874;-1.092;2023-12-20T01:47:24;23.13;;;3.58;;
9783;SDS011;4931;44.874;-1.092;2023-12-20T01:49:49;25.30;;;3.67;;
9783;SDS011;4931;44.874;-1.092;2023-12-20T01:52:15;22.23;;;4.38;;
9783;SDS011;4931;44.874;-1.092;2023-12-20T01:54:42;21.27;;;4.05;;
9783;SDS011;4931;44.874;-1.092;2023-12-20T01:57:08;22.35;;;3.70;;
9783;SDS011;4931;44.874;-1.092;2023-12-20T01:59:34;19.08;;;3.67;;
9783;SDS011;4931;44.874;-1.092;2023-12-20T02:02:00;20.83;;;3.92;;
9783;SDS011;4931;44.874;-1.092;2023-12-20T02:04:26;18.48;;;3.67;;
9783;SDS011;4931;44.874;-1.092;2023-12-20T02:06:52;16.83;;;3.50;;
9783;SDS011;4931;44.874;-1.092;2023-12-20T02:09:18;21.27;;;3.42;;
9783;SDS011;4931;44.874;-1.092;2023-12-20T02:11:44;14.52;;;3.45;;
9783;SDS011;4931;44.874;-1.092;2023-12-20T02:14:09;11.95;;;3.47;;
9783;SDS011;4931;44.874;-1.092;2023-12-20T02:16:35;17.80;;;3.63;;
9783;SDS011;4931;44.874;-1.092;2023-12-20T02:19:00;13.10;;;3.38;;
9783;SDS011;4931;44.874;-1.092;2023-12-20T02:21:31;16.10;;;3.60;;
9783;SDS011;4931;44.874;-1.092;2023-12-20T02:23:58;22.02;;;3.70;;
9783;SDS011;4931;44.874;-1.092;2023-12-20T02:26:23;19.17;;;3.92;;
9783;SDS011;4931;44.874;-1.092;2023-12-20T02:28:48;19.42;;;3.65;;
9783;SDS011;4931;44.874;-1.092;2023-12-20T02:31:14;25.98;;;4.22;;
9783;SDS011;4931;44.874;-1.092;2023-12-20T02:33:39;26.35;;;4.00;;
9783;SDS011;4931;44.874;-1.092;2023-12-20T02:36:07;26.17;;;4.20;;
9783;SDS011;4931;44.874;-1.092;2023-12-20T02:38:32;23.05;;;3.92;;
9783;SDS011;4931;44.874;-1.092;2023-12-20T02:40:59;20.77;;;3.70;;
9783;SDS011;4931;44.874;-1.092;2023-12-20T02:43:24;23.17;;;3.83;;
9783;SDS011;4931;44.874;-1.092;2023-12-20T02:45:49;15.13;;;3.03;;
9783;SDS011;4931;44.874;-1.092;2023-12-20T02:48:15;20.08;;;3.65;;
9783;SDS011;4931;44.874;-1.092;2023-12-20T02:50:40;19.95;;;3.25;;
9783;SDS011;4931;44.874;-1.092;2023-12-20T02:53:06;28.30;;;3.65;;
9783;SDS011;4931;44.874;-1.092;2023-12-20T02:55:31;20.40;;;3.33;;
9783;SDS011;4931;44.874;-1.092;2023-12-20T02:57:57;15.45;;;3.25;;
9783;SDS011;4931;44.874;-1.092;2023-12-20T03:00:22;19.52;;;3.22;;
9783;SDS011;4931;44.874;-1.092;2023-12-20T03:02:48;18.25;;;3.42;;
9783;SDS011;4931;44.874;-1.092;2023-12-20T03:05:13;22.15;;;3.70;;
9783;SDS011;4931;44.874;-1.092;2023-12-20T03:07:40;17.52;;;3.42;;
9783;SDS011;4931;44.874;-1.092;2023-12-20T03:10:05;15.93;;;3.28;;
9783;SDS011;4931;44.874;-1.092;2023-12-20T03:12:33;24.45;;;3.78;;
9783;SDS011;4931;44.874;-1.092;2023-12-20T03:14:58;20.08;;;3.67;;
9783;SDS011;4931;44.874;-1.092;2023-12-20T03:17:24;16.27;;;3.08;;
9783;SDS011;4931;44.874;-1.092;2023-12-20T03:19:49;24.83;;;3.47;;
9783;SDS011;4931;44.874;-1.092;2023-12-20T03:22:15;23.10;;;3.78;;
9783;SDS011;4931;44.874;-1.092;2023-12-20T03:24:40;18.10;;;3.75;;
9783;SDS011;4931;44.874;-1.092;2023-12-20T03:27:06;15.32;;;2.78;;
9783;SDS011;4931;44.874;-1.092;2023-12-20T03:29:31;19.55;;;3.63;;
9783;SDS011;4931;44.874;-1.092;2023-12-20T03:31:56;24.75;;;3.55;;
9783;SDS011;4931;44.874;-1.092;2023-12-20T03:34:22;20.27;;;3.25;;
9783;SDS011;4931;44.874;-1.092;2023-12-20T03:36:47;17.20;;;3.45;;
9783;SDS011;4931;44.874;-1.092;2023-12-20T03:39:13;17.58;;;3.55;;
9783;SDS011;4931;44.874;-1.092;2023-12-20T03:41:38;19.95;;;3.38;;
9783;SDS011;4931;44.874;-1.092;2023-12-20T03:44:04;21.63;;;3.53;;
9783;SDS011;4931;44.874;-1.092;2023-12-20T03:46:29;24.92;;;3.40;;
9783;SDS011;4931;44.874;-1.092;2023-12-20T03:48:55;22.73;;;3.42;;
9783;SDS011;4931;44.874;-1.092;2023-12-20T03:51:20;18.67;;;3.58;;
9783;SDS011;4931;44.874;-1.092;2023-12-20T03:53:46;22.80;;;3.42;;
9783;SDS011;4931;44.874;-1.092;2023-12-20T03:56:11;19.48;;;3.70;;
9783;SDS011;4931;44.874;-1.092;2023-12-20T03:58:36;13.25;;;3.00;;
9783;SDS011;4931;44.874;-1.092;2023-12-20T04:01:02;20.75;;;3.95;;
9783;SDS011;4931;44.874;-1.092;2023-12-20T04:03:27;15.23;;;3.13;;
9783;SDS011;4931;44.874;-1.092;2023-12-20T04:05:55;23.67;;;3.10;;
9783;SDS011;4931;44.874;-1.092;2023-12-20T04:08:21;17.35;;;2.88;;
9783;SDS011;4931;44.874;-1.092;2023-12-20T04:10:46;14.60;;;2.90;;
9783;SDS011;4931;44.874;-1.092;2023-12-20T04:13:12;22.80;;;3.75;;
9783;SDS011;4931;44.874;-1.092;2023-12-20T04:15:38;16.33;;;3.20;;
9783;SDS011;4931;44.874;-1.092;2023-12-20T04:18:03;16.27;;;3.10;;
9783;SDS011;4931;44.874;-1.092;2023-12-20T04:20:29;22.58;;;3.60;;
9783;SDS011;4931;44.874;-1.092;2023-12-20T04:22:54;18.27;;;3.10;;
9783;SDS011;4931;44.874;-1.092;2023-12-20T04:25:20;20.60;;;3.30;;
9783;SDS011;4931;44.874;-1.092;2023-12-20T04:27:45;15.55;;;2.88;;
9783;SDS011;4931;44.874;-1.092;2023-12-20T04:30:11;21.00;;;3.30;;
9783;SDS011;4931;44.874;-1.092;2023-12-20T04:32:36;22.27;;;3.30;;
9783;SDS011;4931;44.874;-1.092;2023-12-20T04:35:02;19.48;;;3.38;;
9783;SDS011;4931;44.874;-1.092;2023-12-20T04:37:27;19.35;;;3.40;;
9783;SDS011;4931;44.874;-1.092;2023-12-20T04:39:53;14.65;;;2.75;;
9783;SDS011;4931;44.874;-1.092;2023-12-20T04:42:18;18.20;;;2.53;;
9783;SDS011;4931;44.874;-1.092;2023-12-20T04:44:44;17.60;;;2.95;;
9783;SDS011;4931;44.874;-1.092;2023-12-20T04:47:09;24.50;;;3.65;;
9783;SDS011;4931;44.874;-1.092;2023-12-20T04:49:35;21.17;;;3.00;;
9783;SDS011;4931;44.874;-1.092;2023-12-20T04:52:00;19.48;;;3.38;;
9783;SDS011;4931;44.874;-1.092;2023-12-20T04:54:25;16.90;;;2.83;;
9783;SDS011;4931;44.874;-1.092;2023-12-20T04:56:51;13.20;;;2.80;;
9783;SDS011;4931;44.874;-1.092;2023-12-20T04:59:16;20.50;;;4.10;;
9783;SDS011;4931;44.874;-1.092;2023-12-20T05:01:42;24.17;;;3.45;;
9783;SDS011;4931;44.874;-1.092;2023-12-20T05:04:07;22.45;;;3.30;;
9783;SDS011;4931;44.874;-1.092;2023-12-20T05:06:33;27.80;;;3.53;;
9783;SDS011;4931;44.874;-1.092;2023-12-20T05:08:58;23.50;;;3.90;;
9783;SDS011;4931;44.874;-1.092;2023-12-20T05:11:24;24.70;;;3.92;;
9783;SDS011;4931;44.874;-1.092;2023-12-20T05:13:49;20.33;;;3.25;;
9783;SDS011;4931;44.874;-1.092;2023-12-20T05:16:15;23.75;;;3.80;;
9783;SDS011;4931;44.874;-1.092;2023-12-20T05:18:42;27.02;;;4.20;;
9783;SDS011;4931;44.874;-1.092;2023-12-20T05:21:08;16.80;;;3.90;;
9783;SDS011;4931;44.874;-1.092;2023-12-20T05:23:34;18.42;;;3.47;;
9783;SDS011;4931;44.874;-1.092;2023-12-20T05:25:59;28.83;;;4.18;;
9783;SDS011;4931;44.874;-1.092;2023-12-20T05:28:25;13.98;;;3.15;;
9783;SDS011;4931;44.874;-1.092;2023-12-20T05:30:51;13.93;;;3.00;;
9783;SDS011;4931;44.874;-1.092;2023-12-20T05:33:16;24.98;;;4.00;;
9783;SDS011;4931;44.874;-1.092;2023-12-20T05:35:42;22.00;;;3.65;;
9783;SDS011;4931;44.874;-1.092;2023-12-20T05:38:07;22.35;;;3.50;;
9783;SDS011;4931;44.874;-1.092;2023-12-20T05:40:32;21.35;;;3.45;;
9783;SDS011;4931;44.874;-1.092;2023-12-20T05:42:58;19.38;;;3.13;;
9783;SDS011;4931;44.874;-1.092;2023-12-20T05:45:23;23.45;;;3.42;;
9783;SDS011;4931;44.874;-1.092;2023-12-20T05:47:49;23.95;;;3.45;;
9783;SDS011;4931;44.874;-1.092;2023-12-20T05:50:14;16.63;;;3.13;;
9783;SDS011;4931;44.874;-1.092;2023-12-20T05:52:40;22.42;;;3.53;;
9783;SDS011;4931;44.874;-1.092;2023-12-20T05:55:06;25.67;;;3.50;;
9783;SDS011;4931;44.874;-1.092;2023-12-20T05:57:31;23.98;;;2.97;;
9783;SDS011;4931;44.874;-1.092;2023-12-20T05:59:57;23.50;;;2.80;;
9783;SDS011;4931;44.874;-1.092;2023-12-20T06:02:23;18.88;;;2.65;;
9783;SDS011;4931;44.874;-1.092;2023-12-20T06:04:48;16.75;;;2.80;;
9783;SDS011;4931;44.874;-1.092;2023-12-20T06:07:14;22.50;;;2.88;;
9783;SDS011;4931;44.874;-1.092;2023-12-20T06:09:40;19.98;;;2.75;;
9783;SDS011;4931;44.874;-1.092;2023-12-20T06:12:06;17.02;;;2.30;;
9783;SDS011;4931;44.874;-1.092;2023-12-20T06:14:32;18.95;;;2.55;;
9783;SDS011;4931;44.874;-1.092;2023-12-20T06:16:57;19.20;;;2.20;;
9783;SDS011;4931;44.874;-1.092;2023-12-20T06:19:23;23.25;;;2.95;;
9783;SDS011;4931;44.874;-1.092;2023-12-20T06:21:48;24.50;;;2.65;;
9783;SDS011;4931;44.874;-1.092;2023-12-20T06:24:14;24.75;;;2.78;;
9783;SDS011;4931;44.874;-1.092;2023-12-20T06:26:39;13.80;;;2.10;;
9783;SDS011;4931;44.874;-1.092;2023-12-20T06:29:05;20.30;;;2.45;;
9783;SDS011;4931;44.874;-1.092;2023-12-20T06:31:30;24.30;;;3.45;;
9783;SDS011;4931;44.874;-1.092;2023-12-20T06:33:58;18.83;;;2.88;;
9783;SDS011;4931;44.874;-1.092;2023-12-20T06:36:25;26.15;;;3.00;;
9783;SDS011;4931;44.874;-1.092;2023-12-20T06:38:51;21.60;;;3.08;;
9783;SDS011;4931;44.874;-1.092;2023-12-20T06:41:16;17.67;;;3.20;;
9783;SDS011;4931;44.874;-1.092;2023-12-20T06:43:42;19.50;;;2.65;;
9783;SDS011;4931;44.874;-1.092;2023-12-20T06:46:08;22.02;;;3.33;;
9783;SDS011;4931;44.874;-1.092;2023-12-20T06:48:34;19.40;;;3.05;;
9783;SDS011;4931;44.874;-1.092;2023-12-20T06:51:00;20.35;;;2.92;;
9783;SDS011;4931;44.874;-1.092;2023-12-20T06:53:29;19.40;;;2.63;;
9783;SDS011;4931;44.874;-1.092;2023-12-20T06:55:54;17.35;;;2.25;;
9783;SDS011;4931;44.874;-1.092;2023-12-20T06:58:22;17.33;;;2.67;;
9783;SDS011;4931;44.874;-1.092;2023-12-20T07:00:47;19.95;;;3.05;;
9783;SDS011;4931;44.874;-1.092;2023-12-20T07:03:13;25.42;;;3.05;;
9783;SDS011;4931;44.874;-1.092;2023-12-20T07:05:39;17.58;;;2.50;;
9783;SDS011;4931;44.874;-1.092;2023-12-20T07:08:06;19.00;;;3.15;;
9783;SDS011;4931;44.874;-1.092;2023-12-20T07:10:31;19.33;;;2.97;;
9783;SDS011;4931;44.874;-1.092;2023-12-20T07:12:57;17.83;;;3.22;;
9783;SDS011;4931;44.874;-1.092;2023-12-20T07:15:22;24.83;;;3.08;;
9783;SDS011;4931;44.874;-1.092;2023-12-20T07:17:48;20.70;;;3.20;;
9783;SDS011;4931;44.874;-1.092;2023-12-20T07:20:13;18.70;;;2.97;;
9783;SDS011;4931;44.874;-1.092;2023-12-20T07:22:39;25.00;;;3.13;;
9783;SDS011;4931;44.874;-1.092;2023-12-20T07:25:04;17.00;;;2.90;;
9783;SDS011;4931;44.874;-1.092;2023-12-20T07:27:30;15.48;;;3.10;;
9783;SDS011;4931;44.874;-1.092;2023-12-20T07:29:56;21.75;;;2.60;;
9783;SDS011;4931;44.874;-1.092;2023-12-20T07:32:21;14.02;;;2.22;;
9783;SDS011;4931;44.874;-1.092;2023-12-20T07:34:47;14.73;;;2.42;;
9783;SDS011;4931;44.874;-1.092;2023-12-20T07:37:12;16.30;;;2.33;;
9783;SDS011;4931;44.874;-1.092;2023-12-20T07:39:41;25.63;;;2.78;;
9783;SDS011;4931;44.874;-1.092;2023-12-20T07:42:07;22.33;;;2.75;;
9783;SDS011;4931;44.874;-1.092;2023-12-20T07:44:34;21.33;;;2.67;;
9783;SDS011;4931;44.874;-1.092;2023-12-20T07:47:01;16.52;;;2.33;;
9783;SDS011;4931;44.874;-1.092;2023-12-20T07:49:30;11.52;;;1.80;;
9783;SDS011;4931;44.874;-1.092;2023-12-20T07:51:56;16.95;;;2.15;;
9783;SDS011;4931;44.874;-1.092;2023-12-20T07:54:21;20.27;;;5.50;;
9783;SDS011;4931;44.874;-1.092;2023-12-20T07:56:47;10.35;;;2.60;;
9783;SDS011;4931;44.874;-1.092;2023-12-20T07:59:12;12.07;;;2.47;;
9783;SDS011;4931;44.874;-1.092;2023-12-20T08:01:37;14.63;;;2.70;;
9783;SDS011;4931;44.874;-1.092;2023-12-20T08:04:03;14.38;;;2.10;;
9783;SDS011;4931;44.874;-1.092;2023-12-20T08:06:28;16.73;;;2.25;;
9783;SDS011;4931;44.874;-1.092;2023-12-20T08:08:54;12.57;;;2.00;;
9783;SDS011;4931;44.874;-1.092;2023-12-20T08:11:19;10.85;;;1.95;;
9783;SDS011;4931;44.874;-1.092;2023-12-20T08:13:45;12.25;;;2.50;;
9783;SDS011;4931;44.874;-1.092;2023-12-20T08:16:11;13.30;;;3.03;;
9783;SDS011;4931;44.874;-1.092;2023-12-20T08:18:38;16.58;;;3.20;;
9783;SDS011;4931;44.874;-1.092;2023-12-20T08:21:04;15.02;;;3.75;;
9783;SDS011;4931;44.874;-1.092;2023-12-20T08:23:32;17.85;;;3.80;;
9783;SDS011;4931;44.874;-1.092;2023-12-20T08:25:58;20.27;;;3.10;;
9783;SDS011;4931;44.874;-1.092;2023-12-20T08:28:23;24.55;;;3.03;;
9783;SDS011;4931;44.874;-1.092;2023-12-20T08:30:49;18.77;;;3.42;;
9783;SDS011;4931;44.874;-1.092;2023-12-20T08:33:18;11.45;;;4.13;;
9783;SDS011;4931;44.874;-1.092;2023-12-20T08:35:44;17.73;;;4.72;;
9783;SDS011;4931;44.874;-1.092;2023-12-20T08:38:09;17.50;;;6.68;;
9783;SDS011;4931;44.874;-1.092;2023-12-20T08:40:35;24.73;;;7.95;;
9783;SDS011;4931;44.874;-1.092;2023-12-20T08:43:00;23.75;;;11.23;;
9783;SDS011;4931;44.874;-1.092;2023-12-20T08:45:26;34.17;;;15.40;;
9783;SDS011;4931;44.874;-1.092;2023-12-20T08:47:51;26.30;;;13.02;;
9783;SDS011;4931;44.874;-1.092;2023-12-20T08:50:17;23.25;;;11.35;;
9783;SDS011;4931;44.874;-1.092;2023-12-20T08:52:43;22.10;;;10.05;;
9783;SDS011;4931;44.874;-1.092;2023-12-20T08:55:08;20.15;;;8.63;;
9783;SDS011;4931;44.874;-1.092;2023-12-20T08:57:35;20.27;;;6.97;;
9783;SDS011;4931;44.874;-1.092;2023-12-20T09:00:01;20.33;;;6.80;;
9783;SDS011;4931;44.874;-1.092;2023-12-20T09:02:26;19.80;;;6.68;;
9783;SDS011;4931;44.874;-1.092;2023-12-20T09:04:52;23.75;;;7.18;;
9783;SDS011;4931;44.874;-1.092;2023-12-20T09:07:21;25.95;;;8.00;;
9783;SDS011;4931;44.874;-1.092;2023-12-20T09:09:47;19.63;;;7.80;;
9783;SDS011;4931;44.874;-1.092;2023-12-20T09:12:13;25.58;;;7.68;;
9783;SDS011;4931;44.874;-1.092;2023-12-20T09:14:38;28.48;;;7.60;;
9783;SDS011;4931;44.874;-1.092;2023-12-20T09:17:03;35.00;;;7.95;;
9783;SDS011;4931;44.874;-1.092;2023-12-20T09:19:29;25.38;;;7.03;;
9783;SDS011;4931;44.874;-1.092;2023-12-20T09:21:55;23.73;;;7.03;;
9783;SDS011;4931;44.874;-1.092;2023-12-20T09:24:20;28.73;;;6.95;;
9783;SDS011;4931;44.874;-1.092;2023-12-20T09:26:46;26.75;;;8.98;;
9783;SDS011;4931;44.874;-1.092;2023-12-20T09:29:11;30.05;;;9.02;;
9783;SDS011;4931;44.874;-1.092;2023-12-20T09:31:40;31.65;;;10.00;;
9783;SDS011;4931;44.874;-1.092;2023-12-20T09:34:08;22.73;;;7.45;;
9783;SDS011;4931;44.874;-1.092;2023-12-20T09:36:34;29.42;;;7.88;;
9783;SDS011;4931;44.874;-1.092;2023-12-20T09:39:01;24.77;;;5.80;;
9783;SDS011;4931;44.874;-1.092;2023-12-20T09:41:28;32.80;;;9.88;;
9783;SDS011;4931;44.874;-1.092;2023-12-20T09:43:58;28.63;;;11.05;;
9783;SDS011;4931;44.874;-1.092;2023-12-20T09:46:27;38.75;;;13.05;;
9783;SDS011;4931;44.874;-1.092;2023-12-20T09:48:59;41.00;;;11.05;;
9783;SDS011;4931;44.874;-1.092;2023-12-20T09:51:26;27.30;;;6.50;;
9783;SDS011;4931;44.874;-1.092;2023-12-20T09:53:54;22.90;;;4.88;;
9783;SDS011;4931;44.874;-1.092;2023-12-20T09:56:21;28.30;;;5.65;;
9783;SDS011;4931;44.874;-1.092;2023-12-20T09:58:47;25.20;;;6.90;;
9783;SDS011;4931;44.874;-1.092;2023-12-20T10:01:12;26.08;;;7.53;;
9783;SDS011;4931;44.874;-1.092;2023-12-20T10:03:39;28.83;;;8.18;;
9783;SDS011;4931;44.874;-1.092;2023-12-20T10:06:06;31.63;;;8.57;;
9783;SDS011;4931;44.874;-1.092;2023-12-20T10:08:32;30.50;;;14.15;;
9783;SDS011;4931;44.874;-1.092;2023-12-20T10:10:57;46.92;;;16.27;;
9783;SDS011;4931;44.874;-1.092;2023-12-20T10:13:27;23.70;;;6.40;;
9783;SDS011;4931;44.874;-1.092;2023-12-20T10:15:54;23.52;;;6.38;;
9783;SDS011;4931;44.874;-1.092;2023-12-20T10:18:20;24.08;;;7.40;;
9783;SDS011;4931;44.874;-1.092;2023-12-20T10:20:46;22.42;;;6.80;;
9783;SDS011;4931;44.874;-1.092;2023-12-20T10:23:12;18.85;;;4.60;;
9783;SDS011;4931;44.874;-1.092;2023-12-20T10:25:39;23.05;;;5.25;;
9783;SDS011;4931;44.874;-1.092;2023-12-20T10:28:08;21.15;;;5.35;;
9783;SDS011;4931;44.874;-1.092;2023-12-20T10:30:35;23.08;;;4.65;;
9783;SDS011;4931;44.874;-1.092;2023-12-20T10:33:01;29.00;;;4.25;;
9783;SDS011;4931;44.874;-1.092;2023-12-20T10:35:26;18.00;;;3.95;;
9783;SDS011;4931;44.874;-1.092;2023-12-20T10:37:52;28.48;;;5.10;;
9783;SDS011;4931;44.874;-1.092;2023-12-20T10:40:21;15.32;;;4.13;;
9783;SDS011;4931;44.874;-1.092;2023-12-20T10:42:47;17.85;;;4.05;;
9783;SDS011;4931;44.874;-1.092;2023-12-20T10:45:14;22.60;;;4.22;;
9783;SDS011;4931;44.874;-1.092;2023-12-20T10:47:42;19.23;;;3.85;;
9783;SDS011;4931;44.874;-1.092;2023-12-20T10:50:11;15.38;;;2.75;;
9783;SDS011;4931;44.874;-1.092;2023-12-20T10:52:36;16.00;;;4.05;;
9783;SDS011;4931;44.874;-1.092;2023-12-20T10:55:03;13.90;;;2.60;;
9783;SDS011;4931;44.874;-1.092;2023-12-20T10:57:28;15.57;;;2.70;;
9783;SDS011;4931;44.874;-1.092;2023-12-20T10:59:55;17.40;;;2.50;;
9783;SDS011;4931;44.874;-1.092;2023-12-20T11:02:25;18.75;;;2.70;;
9783;SDS011;4931;44.874;-1.092;2023-12-20T11:05:00;17.88;;;2.10;;
9783;SDS011;4931;44.874;-1.092;2023-12-20T11:07:47;17.70;;;2.40;;
9783;SDS011;4931;44.874;-1.092;2023-12-20T11:15:13;15.50;;;2.53;;
9783;SDS011;4931;44.874;-1.092;2023-12-20T11:17:40;20.17;;;2.45;;
9783;SDS011;4931;44.874;-1.092;2023-12-20T11:20:06;14.88;;;2.28;;
9783;SDS011;4931;44.874;-1.092;2023-12-20T11:22:35;14.85;;;1.95;;
9783;SDS011;4931;44.874;-1.092;2023-12-20T11:25:11;19.83;;;2.33;;
9783;SDS011;4931;44.874;-1.092;2023-12-20T11:27:40;9.32;;;2.08;;
9783;SDS011;4931;44.874;-1.092;2023-12-20T11:30:08;9.52;;;1.58;;
9783;SDS011;4931;44.874;-1.092;2023-12-20T11:32:37;15.07;;;1.40;;
9783;SDS011;4931;44.874;-1.092;2023-12-20T11:37:37;13.65;;;1.50;;
9783;SDS011;4931;44.874;-1.092;2023-12-20T11:40:08;8.98;;;1.10;;
9783;SDS011;4931;44.874;-1.092;2023-12-20T11:42:40;15.45;;;1.58;;
9783;SDS011;4931;44.874;-1.092;2023-12-20T11:45:10;10.98;;;1.88;;
9783;SDS011;4931;44.874;-1.092;2023-12-20T11:47:42;19.65;;;2.33;;
9783;SDS011;4931;44.874;-1.092;2023-12-20T11:50:09;10.07;;;1.50;;
9783;SDS011;4931;44.874;-1.092;2023-12-20T11:52:34;10.00;;;1.77;;
9783;SDS011;4931;44.874;-1.092;2023-12-20T11:55:00;13.93;;;1.83;;
9783;SDS011;4931;44.874;-1.092;2023-12-20T11:57:25;20.08;;;5.60;;
9783;SDS011;4931;44.874;-1.092;2023-12-20T11:59:51;12.77;;;2.63;;
9783;SDS011;4931;44.874;-1.092;2023-12-20T12:02:16;12.07;;;1.73;;
9783;SDS011;4931;44.874;-1.092;2023-12-20T12:04:42;11.40;;;1.60;;
9783;SDS011;4931;44.874;-1.092;2023-12-20T12:07:07;13.15;;;1.70;;
9783;SDS011;4931;44.874;-1.092;2023-12-20T12:09:33;8.50;;;1.58;;
9783;SDS011;4931;44.874;-1.092;2023-12-20T12:11:59;9.00;;;1.75;;
9783;SDS011;4931;44.874;-1.092;2023-12-20T12:14:25;12.23;;;2.03;;
9783;SDS011;4931;44.874;-1.092;2023-12-20T12:16:50;12.85;;;1.50;;
9783;SDS011;4931;44.874;-1.092;2023-12-20T12:19:24;12.35;;;1.60;;
9783;SDS011;4931;44.874;-1.092;2023-12-20T12:21:51;16.13;;;2.00;;
9783;SDS011;4931;44.874;-1.092;2023-12-20T12:24:29;12.20;;;1.70;;
9783;SDS011;4931;44.874;-1.092;2023-12-20T12:26:56;11.43;;;2.10;;
9783;SDS011;4931;44.874;-1.092;2023-12-20T12:29:22;15.05;;;1.75;;
9783;SDS011;4931;44.874;-1.092;2023-12-20T12:31:49;13.50;;;1.75;;
9783;SDS011;4931;44.874;-1.092;2023-12-20T12:34:15;14.43;;;2.00;;
9783;SDS011;4931;44.874;-1.092;2023-12-20T12:36:41;12.80;;;1.60;;
9783;SDS011;4931;44.874;-1.092;2023-12-20T12:39:07;10.25;;;2.13;;
9783;SDS011;4931;44.874;-1.092;2023-12-20T12:41:33;15.63;;;2.00;;
9783;SDS011;4931;44.874;-1.092;2023-12-20T12:43:58;14.55;;;1.70;;
9783;SDS011;4931;44.874;-1.092;2023-12-20T12:46:24;14.63;;;2.15;;
9783;SDS011;4931;44.874;-1.092;2023-12-20T12:48:49;28.38;;;3.15;;
9783;SDS011;4931;44.874;-1.092;2023-12-20T12:51:15;25.85;;;2.67;;
9783;SDS011;4931;44.874;-1.092;2023-12-20T12:53:41;17.73;;;2.25;;
9783;SDS011;4931;44.874;-1.092;2023-12-20T12:56:06;12.20;;;1.58;;
9783;SDS011;4931;44.874;-1.092;2023-12-20T12:58:32;11.43;;;2.20;;
9783;SDS011;4931;44.874;-1.092;2023-12-20T13:00:58;14.02;;;1.92;;
9783;SDS011;4931;44.874;-1.092;2023-12-20T13:03:24;10.23;;;1.45;;
9783;SDS011;4931;44.874;-1.092;2023-12-20T13:05:50;18.02;;;2.95;;
9783;SDS011;4931;44.874;-1.092;2023-12-20T13:08:16;14.43;;;1.85;;
9783;SDS011;4931;44.874;-1.092;2023-12-20T13:10:42;12.60;;;2.00;;
9783;SDS011;4931;44.874;-1.092;2023-12-20T13:13:07;34.60;;;7.15;;
9783;SDS011;4931;44.874;-1.092;2023-12-20T13:15:33;13.30;;;2.50;;
9783;SDS011;4931;44.874;-1.092;2023-12-20T13:17:58;9.75;;;1.60;;
9783;SDS011;4931;44.874;-1.092;2023-12-20T13:20:25;14.77;;;1.83;;
9783;SDS011;4931;44.874;-1.092;2023-12-20T13:22:50;17.95;;;2.40;;
9783;SDS011;4931;44.874;-1.092;2023-12-20T13:25:16;12.82;;;1.90;;
9783;SDS011;4931;44.874;-1.092;2023-12-20T13:27:41;12.90;;;2.35;;
9783;SDS011;4931;44.874;-1.092;2023-12-20T13:30:07;17.08;;;2.20;;
9783;SDS011;4931;44.874;-1.092;2023-12-20T13:32:32;14.27;;;1.85;;
9783;SDS011;4931;44.874;-1.092;2023-12-20T13:34:58;14.50;;;2.20;;
9783;SDS011;4931;44.874;-1.092;2023-12-20T13:37:23;13.60;;;2.08;;
9783;SDS011;4931;44.874;-1.092;2023-12-20T13:39:49;12.40;;;1.73;;
9783;SDS011;4931;44.874;-1.092;2023-12-20T13:42:14;15.32;;;1.90;;
9783;SDS011;4931;44.874;-1.092;2023-12-20T13:44:40;16.13;;;2.33;;
9783;SDS011;4931;44.874;-1.092;2023-12-20T13:47:05;13.05;;;2.10;;
9783;SDS011;4931;44.874;-1.092;2023-12-20T13:49:31;19.42;;;2.28;;
9783;SDS011;4931;44.874;-1.092;2023-12-20T13:51:57;14.82;;;2.20;;
9783;SDS011;4931;44.874;-1.092;2023-12-20T13:54:22;17.02;;;2.05;;
9783;SDS011;4931;44.874;-1.092;2023-12-20T13:56:48;15.77;;;2.20;;
9783;SDS011;4931;44.874;-1.092;2023-12-20T13:59:13;13.43;;;1.88;;
9783;SDS011;4931;44.874;-1.092;2023-12-20T14:01:40;23.15;;;2.22;;
9783;SDS011;4931;44.874;-1.092;2023-12-20T14:04:06;17.95;;;2.17;;
9783;SDS011;4931;44.874;-1.092;2023-12-20T14:06:32;18.42;;;2.60;;
9783;SDS011;4931;44.874;-1.092;2023-12-20T14:08:58;15.02;;;1.80;;
9783;SDS011;4931;44.874;-1.092;2023-12-20T14:11:27;14.18;;;2.15;;
9783;SDS011;4931;44.874;-1.092;2023-12-20T14:13:52;14.02;;;2.00;;
9783;SDS011;4931;44.874;-1.092;2023-12-20T14:16:22;11.65;;;1.80;;
9783;SDS011;4931;44.874;-1.092;2023-12-20T14:18:48;15.30;;;1.70;;
9783;SDS011;4931;44.874;-1.092;2023-12-20T14:21:14;13.80;;;1.85;;
9783;SDS011;4931;44.874;-1.092;2023-12-20T14:23:39;16.15;;;2.20;;
9783;SDS011;4931;44.874;-1.092;2023-12-20T14:26:05;14.95;;;2.05;;
9783;SDS011;4931;44.874;-1.092;2023-12-20T14:28:30;12.65;;;2.13;;
9783;SDS011;4931;44.874;-1.092;2023-12-20T14:30:56;11.48;;;1.67;;
9783;SDS011;4931;44.874;-1.092;2023-12-20T14:33:21;11.15;;;1.63;;
9783;SDS011;4931;44.874;-1.092;2023-12-20T14:35:47;9.48;;;1.70;;
9783;SDS011;4931;44.874;-1.092;2023-12-20T14:38:13;15.65;;;1.92;;
9783;SDS011;4931;44.874;-1.092;2023-12-20T14:40:40;13.75;;;2.10;;
9783;SDS011;4931;44.874;-1.092;2023-12-20T14:43:05;16.00;;;1.90;;
9783;SDS011;4931;44.874;-1.092;2023-12-20T14:45:31;14.15;;;2.05;;
9783;SDS011;4931;44.874;-1.092;2023-12-20T14:47:58;14.70;;;2.28;;